Terminal Aerodrome Forecast
Issued by NWS Wilmington, NC

Current Version | Previous Version | Graphics & Text | Print | Product List | Glossary Off
Versions: 1 2 3 4 5 6 7 8 9 10 11 12 13 14 15 16

000
FTUS42 KILM 261120
TAFMYR
TAF
KMYR 261120Z 2612/2712 12009KT P6SM SCT025 BKN060
      TEMPO 2614/2617 6SM -SHRA BKN025
     FM261700 16012G20KT P6SM SCT050 SCT120
     FM270200 17012KT P6SM SCT100=

USA.gov is the U.S. government's official web portal to all federal, state and local government web resources and services.